sensor_id;sensor_type;location;lat;lon;timestamp;pressure;altitude;pressure_sealevel;temperature;humidity
40596;BME280;26304;48.794;9.820;2023-04-23T00:01:03;95718.09;;;19.43;52.62
40596;BME280;26304;48.794;9.820;2023-04-23T00:06:46;95713.63;;;19.40;53.20
40596;BME280;26304;48.794;9.820;2023-04-23T00:12:30;95712.13;;;19.39;52.47
40596;BME280;26304;48.794;9.820;2023-04-23T00:18:13;95696.31;;;19.39;52.90
40596;BME280;26304;48.794;9.820;2023-04-23T00:23:57;95690.28;;;19.42;52.37
40596;BME280;26304;48.794;9.820;2023-04-23T00:29:41;95705.31;;;19.41;52.59
40596;BME280;26304;48.794;9.820;2023-04-23T00:35:23;95708.34;;;19.40;52.83
40596;BME280;26304;48.794;9.820;2023-04-23T00:41:06;95710.97;;;19.40;52.36
40596;BME280;26304;48.794;9.820;2023-04-23T00:46:50;95700.84;;;19.38;52.52
40596;BME280;26304;48.794;9.820;2023-04-23T00:52:33;95703.84;;;19.37;52.26
40596;BME280;26304;48.794;9.820;2023-04-23T00:58:16;95703.47;;;19.38;52.45
40596;BME280;26304;48.794;9.820;2023-04-23T01:04:00;95705.75;;;19.36;52.63
40596;BME280;26304;48.794;9.820;2023-04-23T01:09:43;95718.97;;;19.33;52.62
40596;BME280;26304;48.794;9.820;2023-04-23T01:15:25;95725.75;;;19.34;52.97
40596;BME280;26304;48.794;9.820;2023-04-23T01:21:09;95728.00;;;19.35;52.66
40596;BME280;26304;48.794;9.820;2023-04-23T01:26:54;95731.03;;;19.34;52.45
40596;BME280;26304;48.794;9.820;2023-04-23T01:32:37;95728.00;;;19.32;52.67
40596;BME280;26304;48.794;9.820;2023-04-23T01:38:21;95728.00;;;19.32;52.93
40596;BME280;26304;48.794;9.820;2023-04-23T01:44:06;95734.94;;;19.56;51.59
40596;BME280;26304;48.794;9.820;2023-04-23T01:49:48;95739.94;;;20.20;50.82
40596;BME280;26304;48.794;9.820;2023-04-23T01:55:31;95740.97;;;21.11;49.07
40596;BME280;26304;48.794;9.820;2023-04-23T02:01:16;95755.38;;;21.54;48.04
40596;BME280;26304;48.794;9.820;2023-04-23T02:06:59;95755.72;;;22.00;47.34
40596;BME280;26304;48.794;9.820;2023-04-23T02:12:42;95762.75;;;22.06;47.35
40596;BME280;26304;48.794;9.820;2023-04-23T02:18:26;95768.75;;;22.10;47.49
40596;BME280;26304;48.794;9.820;2023-04-23T02:24:08;95768.28;;;22.36;47.23
40596;BME280;26304;48.794;9.820;2023-04-23T02:29:51;95768.28;;;22.72;46.37
40596;BME280;26304;48.794;9.820;2023-04-23T02:35:34;95766.47;;;22.69;46.48
40596;BME280;26304;48.794;9.820;2023-04-23T02:41:17;95772.97;;;23.17;45.49
40596;BME280;26304;48.794;9.820;2023-04-23T02:46:59;95778.75;;;23.45;45.13
40596;BME280;26304;48.794;9.820;2023-04-23T02:52:43;95778.31;;;23.47;45.37
40596;BME280;26304;48.794;9.820;2023-04-23T02:58:26;95777.94;;;23.15;45.83
40596;BME280;26304;48.794;9.820;2023-04-23T03:04:08;95771.00;;;22.68;46.93
40596;BME280;26304;48.794;9.820;2023-04-23T03:09:53;95768.88;;;22.43;47.40
40596;BME280;26304;48.794;9.820;2023-04-23T03:15:36;95771.94;;;22.22;47.95
40596;BME280;26304;48.794;9.820;2023-04-23T03:21:18;95771.91;;;22.02;48.26
40596;BME280;26304;48.794;9.820;2023-04-23T03:27:02;95775.38;;;21.79;48.72
40596;BME280;26304;48.794;9.820;2023-04-23T03:32:44;95772.28;;;21.60;48.96
40596;BME280;26304;48.794;9.820;2023-04-23T03:38:26;95777.13;;;21.41;49.75
40596;BME280;26304;48.794;9.820;2023-04-23T03:44:10;95783.03;;;21.26;49.75
40596;BME280;26304;48.794;9.820;2023-04-23T03:49:53;95762.13;;;21.11;50.23
40596;BME280;26304;48.794;9.820;2023-04-23T03:55:36;95778.19;;;20.97;50.52
40596;BME280;26304;48.794;9.820;2023-04-23T04:01:19;95784.75;;;20.85;50.68
40596;BME280;26304;48.794;9.820;2023-04-23T04:07:02;95769.47;;;20.73;50.90
40596;BME280;26304;48.794;9.820;2023-04-23T04:12:45;95771.84;;;20.60;51.19
40596;BME280;26304;48.794;9.820;2023-04-23T04:18:29;95778.09;;;20.46;51.54
40596;BME280;26304;48.794;9.820;2023-04-23T04:24:12;95765.09;;;20.59;51.63
40596;BME280;26304;48.794;9.820;2023-04-23T04:29:54;95768.19;;;20.54;51.88
40596;BME280;26304;48.794;9.820;2023-04-23T04:35:38;95774.25;;;20.50;51.96
40596;BME280;26304;48.794;9.820;2023-04-23T04:41:20;95782.19;;;20.47;51.74
40596;BME280;26304;48.794;9.820;2023-04-23T04:47:05;95787.53;;;20.43;52.07
40596;BME280;26304;48.794;9.820;2023-04-23T04:52:49;95793.97;;;20.42;51.93
40596;BME280;26304;48.794;9.820;2023-04-23T04:58:31;95788.38;;;20.37;52.22
40596;BME280;26304;48.794;9.820;2023-04-23T05:04:14;95799.38;;;20.31;52.31
40596;BME280;26304;48.794;9.820;2023-04-23T05:09:57;95799.00;;;20.29;52.36
40596;BME280;26304;48.794;9.820;2023-04-23T05:15:40;95797.91;;;20.27;52.39
40596;BME280;26304;48.794;9.820;2023-04-23T05:21:22;95802.09;;;20.24;52.45
40596;BME280;26304;48.794;9.820;2023-04-23T05:27:08;95793.09;;;20.22;52.25
40596;BME280;26304;48.794;9.820;2023-04-23T05:32:51;95799.88;;;20.19;52.47
40596;BME280;26304;48.794;9.820;2023-04-23T05:38:33;95802.56;;;20.16;52.64
40596;BME280;26304;48.794;9.820;2023-04-23T05:44:17;95794.28;;;20.13;52.75
40596;BME280;26304;48.794;9.820;2023-04-23T05:49:59;95797.34;;;20.12;52.65
40596;BME280;26304;48.794;9.820;2023-04-23T05:55:42;95789.03;;;20.10;52.65
40596;BME280;26304;48.794;9.820;2023-04-23T06:01:26;95804.16;;;20.09;52.67
40596;BME280;26304;48.794;9.820;2023-04-23T06:07:08;95810.94;;;20.07;52.72
40596;BME280;26304;48.794;9.820;2023-04-23T06:12:51;95804.19;;;20.06;52.80
40596;BME280;26304;48.794;9.820;2023-04-23T06:18:36;95811.34;;;20.05;52.83
40596;BME280;26304;48.794;9.820;2023-04-23T06:24:19;95798.53;;;20.04;52.75
40596;BME280;26304;48.794;9.820;2023-04-23T06:30:01;95784.66;;;20.00;52.58
40596;BME280;26304;48.794;9.820;2023-04-23T06:35:45;95799.31;;;20.01;52.84
40596;BME280;26304;48.794;9.820;2023-04-23T06:41:27;95798.19;;;20.02;53.09
40596;BME280;26304;48.794;9.820;2023-04-23T06:47:10;95798.94;;;20.02;52.96
40596;BME280;26304;48.794;9.820;2023-04-23T06:52:54;95792.16;;;20.01;52.63
40596;BME280;26304;48.794;9.820;2023-04-23T06:58:36;95786.91;;;20.01;52.95
40596;BME280;26304;48.794;9.820;2023-04-23T07:04:21;95794.03;;;20.04;52.92
40596;BME280;26304;48.794;9.820;2023-04-23T07:10:06;95785.34;;;20.04;52.95
40596;BME280;26304;48.794;9.820;2023-04-23T07:15:49;95778.19;;;20.04;52.75
40596;BME280;26304;48.794;9.820;2023-04-23T07:21:31;95774.09;;;20.00;52.74
40596;BME280;26304;48.794;9.820;2023-04-23T07:27:15;95771.47;;;20.00;52.86
40596;BME280;26304;48.794;9.820;2023-04-23T07:32:57;95771.47;;;20.00;52.95
40596;BME280;26304;48.794;9.820;2023-04-23T07:38:40;95776.34;;;20.01;52.93
40596;BME280;26304;48.794;9.820;2023-04-23T07:44:24;95758.28;;;20.30;52.62
40596;BME280;26304;48.794;9.820;2023-04-23T07:50:07;95760.34;;;20.46;52.03
40596;BME280;26304;48.794;9.820;2023-04-23T07:55:50;95765.16;;;20.51;52.32
40596;BME280;26304;48.794;9.820;2023-04-23T08:01:33;95760.56;;;20.59;52.06
40596;BME280;26304;48.794;9.820;2023-04-23T08:07:16;95760.50;;;20.66;52.60
40596;BME280;26304;48.794;9.820;2023-04-23T08:12:58;95754.41;;;20.70;52.49
40596;BME280;26304;48.794;9.820;2023-04-23T08:18:42;95750.22;;;20.72;52.59
40596;BME280;26304;48.794;9.820;2023-04-23T08:24:24;95749.75;;;20.77;52.40
40596;BME280;26304;48.794;9.820;2023-04-23T08:30:08;95749.41;;;20.75;52.65
40596;BME280;26304;48.794;9.820;2023-04-23T08:35:51;95744.44;;;20.81;52.58
40596;BME280;26304;48.794;9.820;2023-04-23T08:41:38;95747.47;;;20.79;52.92
40596;BME280;26304;48.794;9.820;2023-04-23T08:47:23;95740.50;;;20.93;52.25
40596;BME280;26304;48.794;9.820;2023-04-23T08:53:08;95744.44;;;20.81;52.61
40596;BME280;26304;48.794;9.820;2023-04-23T08:58:50;95733.22;;;20.73;52.42
40596;BME280;26304;48.794;9.820;2023-04-23T09:04:34;95740.63;;;20.82;52.31
40596;BME280;26304;48.794;9.820;2023-04-23T09:10:18;95731.97;;;20.81;52.47
40596;BME280;26304;48.794;9.820;2023-04-23T09:16:00;95727.69;;;20.91;52.40
40596;BME280;26304;48.794;9.820;2023-04-23T09:21:43;95720.56;;;20.88;52.75
40596;BME280;26304;48.794;9.820;2023-04-23T09:27:27;95702.75;;;20.92;52.66
40596;BME280;26304;48.794;9.820;2023-04-23T09:33:10;95693.56;;;21.00;52.21
40596;BME280;26304;48.794;9.820;2023-04-23T09:38:55;95687.00;;;21.09;52.48
40596;BME280;26304;48.794;9.820;2023-04-23T09:44:39;95680.13;;;21.15;52.30
40596;BME280;26304;48.794;9.820;2023-04-23T09:50:31;95677.63;;;21.28;52.08
40596;BME280;26304;48.794;9.820;2023-04-23T09:56:14;95686.53;;;21.37;52.08
40596;BME280;26304;48.794;9.820;2023-04-23T10:02:01;95682.28;;;21.20;52.46
40596;BME280;26304;48.794;9.820;2023-04-23T10:07:44;95677.22;;;21.29;52.15
40596;BME280;26304;48.794;9.820;2023-04-23T10:13:29;95670.44;;;21.28;52.47
40596;BME280;26304;48.794;9.820;2023-04-23T10:19:13;95669.31;;;21.29;51.86
40596;BME280;26304;48.794;9.820;2023-04-23T10:24:56;95660.22;;;21.30;52.30
40596;BME280;26304;48.794;9.820;2023-04-23T10:30:41;95646.25;;;21.30;51.85
40596;BME280;26304;48.794;9.820;2023-04-23T10:36:25;95640.56;;;21.31;51.80
40596;BME280;26304;48.794;9.820;2023-04-23T10:42:09;95640.56;;;21.31;51.29
40596;BME280;26304;48.794;9.820;2023-04-23T10:47:53;95632.63;;;21.31;51.18
40596;BME280;26304;48.794;9.820;2023-04-23T10:53:40;95623.53;;;21.32;51.29
40596;BME280;26304;48.794;9.820;2023-04-23T10:59:23;95614.88;;;21.32;51.59
40596;BME280;26304;48.794;9.820;2023-04-23T11:05:07;95616.75;;;21.31;51.32
40596;BME280;26304;48.794;9.820;2023-04-23T11:10:54;95612.97;;;21.32;51.35
40596;BME280;26304;48.794;9.820;2023-04-23T11:16:37;95596.28;;;21.35;51.67
40596;BME280;26304;48.794;9.820;2023-04-23T11:22:19;95592.50;;;21.36;51.34
40596;BME280;26304;48.794;9.820;2023-04-23T11:28:06;95588.63;;;21.41;51.35
40596;BME280;26304;48.794;9.820;2023-04-23T11:33:49;95574.94;;;21.46;51.26
40596;BME280;26304;48.794;9.820;2023-04-23T11:39:31;95567.88;;;21.39;51.64
40596;BME280;26304;48.794;9.820;2023-04-23T11:45:16;95565.09;;;21.47;51.15
40596;BME280;26304;48.794;9.820;2023-04-23T11:50:59;95564.31;;;21.50;51.56
40596;BME280;26304;48.794;9.820;2023-04-23T11:56:41;95549.31;;;21.43;51.99
40596;BME280;26304;48.794;9.820;2023-04-23T12:02:25;95552.00;;;21.39;52.51
40596;BME280;26304;48.794;9.820;2023-04-23T12:08:09;95541.84;;;21.38;52.29
40596;BME280;26304;48.794;9.820;2023-04-23T12:13:52;95535.22;;;21.30;52.25
40596;BME280;26304;48.794;9.820;2023-04-23T12:19:37;95527.09;;;21.00;49.72
40596;BME280;26304;48.794;9.820;2023-04-23T12:25:21;95522.41;;;20.88;50.75
40596;BME280;26304;48.794;9.820;2023-04-23T12:31:04;95517.00;;;20.95;49.51
40596;BME280;26304;48.794;9.820;2023-04-23T12:36:49;95508.53;;;21.04;50.13
40596;BME280;26304;48.794;9.820;2023-04-23T12:42:32;95490.16;;;21.17;50.48
40596;BME280;26304;48.794;9.820;2023-04-23T12:48:16;95485.47;;;21.25;50.52
40596;BME280;26304;48.794;9.820;2023-04-23T12:54:00;95477.88;;;21.27;50.84
40596;BME280;26304;48.794;9.820;2023-04-23T12:59:42;95473.25;;;21.31;51.00
40596;BME280;26304;48.794;9.820;2023-04-23T13:05:25;95461.59;;;21.28;51.17
40596;BME280;26304;48.794;9.820;2023-04-23T13:11:09;95451.44;;;21.27;51.21
40596;BME280;26304;48.794;9.820;2023-04-23T13:16:52;95440.81;;;21.47;51.34
40596;BME280;26304;48.794;9.820;2023-04-23T13:22:34;95427.53;;;21.50;50.74
40596;BME280;26304;48.794;9.820;2023-04-23T13:28:18;95414.25;;;21.54;50.82
40596;BME280;26304;48.794;9.820;2023-04-23T13:34:00;95408.28;;;21.66;51.72
40596;BME280;26304;48.794;9.820;2023-04-23T13:39:43;95398.66;;;21.39;50.79
40596;BME280;26304;48.794;9.820;2023-04-23T13:45:27;95381.69;;;21.57;49.85
40596;BME280;26304;48.794;9.820;2023-04-23T13:51:10;95378.97;;;21.61;50.19
40596;BME280;26304;48.794;9.820;2023-04-23T13:56:52;95360.09;;;21.58;50.25
40596;BME280;26304;48.794;9.820;2023-04-23T14:02:36;95360.94;;;21.55;47.86
40596;BME280;26304;48.794;9.820;2023-04-23T14:08:19;95351.94;;;21.69;48.12
40596;BME280;26304;48.794;9.820;2023-04-23T14:14:01;95348.28;;;21.63;48.23
40596;BME280;26304;48.794;9.820;2023-04-23T14:19:45;95345.22;;;21.65;47.34
40596;BME280;26304;48.794;9.820;2023-04-23T14:25:29;95340.47;;;21.89;47.20
40596;BME280;26304;48.794;9.820;2023-04-23T14:31:12;95339.00;;;21.88;47.34
40596;BME280;26304;48.794;9.820;2023-04-23T14:36:55;95330.44;;;21.67;47.55
40596;BME280;26304;48.794;9.820;2023-04-23T14:42:38;95313.75;;;21.70;47.48
40596;BME280;26304;48.794;9.820;2023-04-23T14:48:20;95293.88;;;21.79;47.02
40596;BME280;26304;48.794;9.820;2023-04-23T14:54:04;95289.28;;;21.66;47.31
40596;BME280;26304;48.794;9.820;2023-04-23T14:59:47;95278.59;;;21.70;46.73
40596;BME280;26304;48.794;9.820;2023-04-23T15:05:29;95281.69;;;21.35;46.66
40596;BME280;26304;48.794;9.820;2023-04-23T15:11:13;95277.16;;;21.52;47.18
40596;BME280;26304;48.794;9.820;2023-04-23T15:16:55;95273.84;;;21.32;46.49
40596;BME280;26304;48.794;9.820;2023-04-23T15:22:38;95263.84;;;21.56;46.38
40596;BME280;26304;48.794;9.820;2023-04-23T15:28:23;95266.06;;;21.41;45.84
40596;BME280;26304;48.794;9.820;2023-04-23T15:34:06;95251.25;;;21.60;46.34
40596;BME280;26304;48.794;9.820;2023-04-23T15:39:49;95247.94;;;21.72;45.90
40596;BME280;26304;48.794;9.820;2023-04-23T15:45:33;95251.94;;;21.64;46.61
40596;BME280;26304;48.794;9.820;2023-04-23T15:51:15;95243.22;;;21.51;46.19
40596;BME280;26304;48.794;9.820;2023-04-23T15:56:58;95231.22;;;21.46;46.74
40596;BME280;26304;48.794;9.820;2023-04-23T16:02:43;95232.28;;;21.32;46.81
40596;BME280;26304;48.794;9.820;2023-04-23T16:08:25;95231.00;;;21.24;46.29
40596;BME280;26304;48.794;9.820;2023-04-23T16:14:07;95221.63;;;21.36;46.03
40596;BME280;26304;48.794;9.820;2023-04-23T16:19:51;95213.59;;;21.39;46.42
40596;BME280;26304;48.794;9.820;2023-04-23T16:25:34;95209.78;;;21.57;46.33
40596;BME280;26304;48.794;9.820;2023-04-23T16:31:17;95213.25;;;21.54;47.02
40596;BME280;26304;48.794;9.820;2023-04-23T16:37:01;95225.84;;;21.33;48.10
40596;BME280;26304;48.794;9.820;2023-04-23T16:42:43;95215.28;;;21.17;48.38
40596;BME280;26304;48.794;9.820;2023-04-23T16:48:25;95212.59;;;20.71;48.87
40596;BME280;26304;48.794;9.820;2023-04-23T16:54:09;95198.91;;;20.76;49.24
40596;BME280;26304;48.794;9.820;2023-04-23T16:59:51;95193.28;;;20.74;50.17
40596;BME280;26304;48.794;9.820;2023-04-23T17:05:37;95232.19;;;20.90;51.78
40596;BME280;26304;48.794;9.820;2023-04-23T17:11:21;95332.03;;;19.75;49.46
40596;BME280;26304;48.794;9.820;2023-04-23T17:17:04;95362.50;;;20.63;49.86
40596;BME280;26304;48.794;9.820;2023-04-23T17:22:46;95352.06;;;21.13;49.45
40596;BME280;26304;48.794;9.820;2023-04-23T17:28:30;95339.22;;;20.78;53.26
40596;BME280;26304;48.794;9.820;2023-04-23T17:34:13;95290.94;;;20.58;53.26
40596;BME280;26304;48.794;9.820;2023-04-23T17:39:55;95281.25;;;20.35;53.54
40596;BME280;26304;48.794;9.820;2023-04-23T17:45:39;95302.13;;;19.85;54.47
40596;BME280;26304;48.794;9.820;2023-04-23T17:51:21;95291.44;;;19.69;55.05
40596;BME280;26304;48.794;9.820;2023-04-23T17:57:04;95293.19;;;19.99;54.83
40596;BME280;26304;48.794;9.820;2023-04-23T18:02:51;95295.56;;;20.33;54.01
40596;BME280;26304;48.794;9.820;2023-04-23T18:08:33;95290.28;;;20.33;54.17
40596;BME280;26304;48.794;9.820;2023-04-23T18:14:16;95287.66;;;20.33;53.90
40596;BME280;26304;48.794;9.820;2023-04-23T18:20:00;95304.31;;;20.30;54.10
40596;BME280;26304;48.794;9.820;2023-04-23T18:25:43;95310.31;;;20.31;53.41
40596;BME280;26304;48.794;9.820;2023-04-23T18:31:26;95297.53;;;20.29;53.67
40596;BME280;26304;48.794;9.820;2023-04-23T18:37:10;95300.31;;;20.22;53.64
40596;BME280;26304;48.794;9.820;2023-04-23T18:42:52;95301.06;;;20.23;53.66
40596;BME280;26304;48.794;9.820;2023-04-23T18:48:56;95318.91;;;20.15;53.49
40596;BME280;26304;48.794;9.820;2023-04-23T18:54:41;95323.84;;;20.13;54.12
40596;BME280;26304;48.794;9.820;2023-04-23T19:00:24;95330.03;;;20.26;53.55
40596;BME280;26304;48.794;9.820;2023-04-23T19:06:07;95345.59;;;20.21;53.21
40596;BME280;26304;48.794;9.820;2023-04-23T19:11:50;95346.13;;;20.12;53.11
40596;BME280;26304;48.794;9.820;2023-04-23T19:17:33;95342.81;;;20.08;52.62
40596;BME280;26304;48.794;9.820;2023-04-23T19:23:16;95362.72;;;19.89;53.06
40596;BME280;26304;48.794;9.820;2023-04-23T19:29:00;95364.91;;;19.94;53.04
40596;BME280;26304;48.794;9.820;2023-04-23T19:34:43;95364.84;;;19.98;52.75
40596;BME280;26304;48.794;9.820;2023-04-23T19:40:26;95360.88;;;20.09;52.17
40596;BME280;26304;48.794;9.820;2023-04-23T19:46:10;95360.28;;;20.22;52.68
40596;BME280;26304;48.794;9.820;2023-04-23T19:51:53;95368.94;;;20.22;53.25
40596;BME280;26304;48.794;9.820;2023-04-23T19:57:36;95357.63;;;20.22;53.82
40596;BME280;26304;48.794;9.820;2023-04-23T20:03:20;95361.41;;;20.21;53.38
40596;BME280;26304;48.794;9.820;2023-04-23T20:09:02;95402.53;;;20.18;54.54
40596;BME280;26304;48.794;9.820;2023-04-23T20:14:47;95417.63;;;20.18;54.51
40596;BME280;26304;48.794;9.820;2023-04-23T20:20:31;95436.50;;;20.16;54.19
40596;BME280;26304;48.794;9.820;2023-04-23T20:26:14;95424.84;;;20.13;54.33
40596;BME280;26304;48.794;9.820;2023-04-23T20:31:56;95432.44;;;20.11;55.13
40596;BME280;26304;48.794;9.820;2023-04-23T20:37:40;95434.75;;;20.09;55.41
40596;BME280;26304;48.794;9.820;2023-04-23T20:43:22;95431.38;;;20.09;55.40
40596;BME280;26304;48.794;9.820;2023-04-23T20:49:05;95444.59;;;20.05;55.32
40596;BME280;26304;48.794;9.820;2023-04-23T20:54:48;95443.47;;;20.06;55.84
40596;BME280;26304;48.794;9.820;2023-04-23T21:00:31;95431.00;;;20.07;55.83
40596;BME280;26304;48.794;9.820;2023-04-23T21:06:15;95422.75;;;20.05;55.93
40596;BME280;26304;48.794;9.820;2023-04-23T21:11:58;95434.81;;;20.06;55.46
40596;BME280;26304;48.794;9.820;2023-04-23T21:17:41;95421.25;;;20.04;55.33
40596;BME280;26304;48.794;9.820;2023-04-23T21:23:24;95413.00;;;20.02;55.75
40596;BME280;26304;48.794;9.820;2023-04-23T21:29:07;95411.50;;;20.01;55.74
40596;BME280;26304;48.794;9.820;2023-04-23T21:34:50;95414.16;;;20.01;56.00
40596;BME280;26304;48.794;9.820;2023-04-23T21:40:32;95419.41;;;20.01;55.98
40596;BME280;26304;48.794;9.820;2023-04-23T21:46:16;95417.63;;;19.98;56.07
40596;BME280;26304;48.794;9.820;2023-04-23T21:51:59;95414.97;;;19.98;55.86
40596;BME280;26304;48.794;9.820;2023-04-23T21:57:42;95412.34;;;19.98;56.11
40596;BME280;26304;48.794;9.820;2023-04-23T22:03:26;95410.84;;;19.96;56.15
40596;BME280;26304;48.794;9.820;2023-04-23T22:09:08;95410.44;;;19.98;56.07
40596;BME280;26304;48.794;9.820;2023-04-23T22:14:50;95414.22;;;19.97;56.10
40596;BME280;26304;48.794;9.820;2023-04-23T22:20:34;95417.25;;;19.95;56.25
40596;BME280;26304;48.794;9.820;2023-04-23T22:26:19;95413.88;;;19.95;56.04
40596;BME280;26304;48.794;9.820;2023-04-23T22:32:01;95408.59;;;19.95;56.17
40596;BME280;26304;48.794;9.820;2023-04-23T22:37:45;95399.94;;;19.94;55.92
40596;BME280;26304;48.794;9.820;2023-04-23T22:43:28;95394.72;;;19.91;56.75
40596;BME280;26304;48.794;9.820;2023-04-23T22:49:10;95395.47;;;19.91;56.39
40596;BME280;26304;48.794;9.820;2023-04-23T22:54:55;95398.84;;;19.92;56.07
40596;BME280;26304;48.794;9.820;2023-04-23T23:00:38;95390.53;;;19.93;55.67
40596;BME280;26304;48.794;9.820;2023-04-23T23:06:20;95392.84;;;19.91;55.91
40596;BME280;26304;48.794;9.820;2023-04-23T23:12:04;95387.59;;;19.88;56.23
40596;BME280;26304;48.794;9.820;2023-04-23T23:17:46;95371.03;;;19.87;56.05
40596;BME280;26304;48.794;9.820;2023-04-23T23:23:30;95357.53;;;19.85;56.45
40596;BME280;26304;48.794;9.820;2023-04-23T23:29:14;95371.03;;;19.87;56.17
40596;BME280;26304;48.794;9.820;2023-04-23T23:34:56;95371.03;;;19.87;55.94
40596;BME280;26304;48.794;9.820;2023-04-23T23:40:38;95355.63;;;19.86;56.03
40596;BME280;26304;48.794;9.820;2023-04-23T23:46:22;95351.47;;;19.85;56.63
40596;BME280;26304;48.794;9.820;2023-04-23T23:52:05;95345.88;;;19.83;56.43
40596;BME280;26304;48.794;9.820;2023-04-23T23:57:47;95343.97;;;19.83;56.27
